createdAt,value
2017-08-15T00:09:30.436Z,6.60
2017-08-15T00:11:57.295Z,5.97
2017-08-15T00:14:24.957Z,6.97
2017-08-15T00:16:52.567Z,6.43
2017-08-15T00:19:19.628Z,6.57
2017-08-15T00:21:46.502Z,6.57
2017-08-15T00:24:13.366Z,5.90
2017-08-15T00:26:41.130Z,6.90
2017-08-15T00:29:08.720Z,6.67
2017-08-15T00:31:35.588Z,6.77
2017-08-15T00:34:02.605Z,6.10
2017-08-15T00:36:29.573Z,6.07
2017-08-15T00:38:56.573Z,6.90
2017-08-15T00:41:24.209Z,6.77
2017-08-15T00:43:51.182Z,7.33
2017-08-15T00:46:18.772Z,6.80
2017-08-15T00:48:45.712Z,6.90
2017-08-15T00:51:12.659Z,6.20
2017-08-15T00:53:39.572Z,5.70
2017-08-15T00:56:06.448Z,6.20
2017-08-15T00:58:33.389Z,7.30
2017-08-15T01:01:01.089Z,5.60
2017-08-15T01:03:27.952Z,6.20
2017-08-15T01:05:54.887Z,7.10
2017-08-15T01:08:21.783Z,6.90
2017-08-15T01:10:49.444Z,6.50
2017-08-15T01:13:17.024Z,6.97
2017-08-15T01:15:43.969Z,6.90
2017-08-15T01:18:10.815Z,6.10
2017-08-15T01:20:37.721Z,5.73
2017-08-15T01:23:04.660Z,6.07
2017-08-15T01:25:31.512Z,5.23
2017-08-15T01:27:58.523Z,6.20
2017-08-15T01:30:25.463Z,6.27
2017-08-15T01:32:52.307Z,6.93
2017-08-15T01:35:19.160Z,7.30
2017-08-15T01:37:49.030Z,6.50
2017-08-15T01:40:16.724Z,6.53
2017-08-15T01:42:43.602Z,7.50
2017-08-15T01:45:10.468Z,7.37
2017-08-15T01:47:37.388Z,6.60
2017-08-15T01:50:04.324Z,6.97
2017-08-15T01:52:31.171Z,6.50
2017-08-15T01:54:58.023Z,6.20
2017-08-15T01:57:24.961Z,6.10
2017-08-15T01:59:51.841Z,6.00
2017-08-15T02:02:19.496Z,6.37
2017-08-15T02:04:46.436Z,7.00
2017-08-15T02:07:13.305Z,7.23
2017-08-15T02:09:40.911Z,6.73
2017-08-15T02:12:07.852Z,7.20
2017-08-15T02:14:34.763Z,8.30
2017-08-15T02:17:02.340Z,7.70
2017-08-15T02:19:29.288Z,7.40
2017-08-15T02:21:56.136Z,7.90
2017-08-15T02:24:22.987Z,8.73
2017-08-15T02:26:49.916Z,6.70
2017-08-15T02:29:16.829Z,8.00
2017-08-15T02:31:43.702Z,7.80
2017-08-15T02:34:10.624Z,7.60
2017-08-15T02:36:38.288Z,7.50
2017-08-15T02:39:05.319Z,5.50
2017-08-15T02:41:32.169Z,6.03
2017-08-15T02:43:59.020Z,5.63
2017-08-15T02:46:25.955Z,5.10
2017-08-15T02:48:52.861Z,5.23
2017-08-15T02:51:19.833Z,5.50
2017-08-15T02:53:46.680Z,6.30
2017-08-15T02:56:13.539Z,5.70
2017-08-15T02:58:40.511Z,6.10
2017-08-15T03:01:08.120Z,6.30
2017-08-15T03:03:35.078Z,6.27
2017-08-15T03:06:01.932Z,7.67
2017-08-15T03:08:28.879Z,6.90
2017-08-15T03:10:55.723Z,6.70
2017-08-15T03:13:22.648Z,6.90
2017-08-15T03:15:49.498Z,6.70
2017-08-15T03:18:16.351Z,6.63
2017-08-15T03:20:43.268Z,7.17
2017-08-15T03:23:10.122Z,9.20
2017-08-15T03:25:37.060Z,8.23
2017-08-15T03:28:03.908Z,8.90
2017-08-15T03:30:30.854Z,9.20
2017-08-15T03:32:57.783Z,10.40
2017-08-15T03:35:24.646Z,8.57
2017-08-15T03:37:51.571Z,9.50
2017-08-15T03:40:18.435Z,8.13
2017-08-15T03:42:45.385Z,8.37
2017-08-15T03:45:12.245Z,8.80
2017-08-15T03:47:39.180Z,8.30
2017-08-15T03:50:06.057Z,8.50
2017-08-15T03:52:32.973Z,8.20
2017-08-15T03:54:59.845Z,8.57
2017-08-15T03:57:27.439Z,8.40
2017-08-15T03:59:54.424Z,8.37
2017-08-15T04:02:21.384Z,7.93
2017-08-15T04:04:48.548Z,8.37
2017-08-15T04:07:15.409Z,7.77
2017-08-15T04:09:43.101Z,7.40
2017-08-15T04:12:09.969Z,7.73
2017-08-15T04:14:36.929Z,7.10
2017-08-15T04:17:03.800Z,8.10
2017-08-15T04:19:30.664Z,8.60
2017-08-15T04:21:57.595Z,8.77
2017-08-15T04:24:25.191Z,7.53
2017-08-15T04:26:52.119Z,7.90
2017-08-15T04:29:18.996Z,9.07
2017-08-15T04:31:45.938Z,7.97
2017-08-15T04:34:12.868Z,7.53
2017-08-15T04:36:39.783Z,8.17
2017-08-15T04:39:07.380Z,7.23
2017-08-15T04:41:34.313Z,7.70
2017-08-15T04:44:01.261Z,7.40
2017-08-15T04:46:30.940Z,8.90
2017-08-15T04:48:58.546Z,7.43
2017-08-15T05:08:47.011Z,7.37
2017-08-15T05:11:13.952Z,7.63
2017-08-15T05:13:40.831Z,7.17
2017-08-15T05:16:07.699Z,7.87
2017-08-15T05:18:38.277Z,8.33
2017-08-15T05:21:14.211Z,7.97
2017-08-15T05:23:48.761Z,8.70
2017-08-15T05:26:17.830Z,7.23
2017-08-15T05:28:45.580Z,7.70
2017-08-15T05:31:14.183Z,7.53
2017-08-15T05:33:42.588Z,8.03
2017-08-15T05:36:10.130Z,7.93
2017-08-15T05:38:38.070Z,8.27
2017-08-15T05:41:16.510Z,7.67
2017-08-15T05:43:43.367Z,8.57
2017-08-15T05:46:10.220Z,7.87
2017-08-15T05:48:37.144Z,7.70
2017-08-15T05:51:04.863Z,8.00
2017-08-15T05:53:31.752Z,8.20
2017-08-15T05:55:58.635Z,8.73
2017-08-15T05:58:25.563Z,8.07
2017-08-15T06:00:52.443Z,7.80
2017-08-15T06:03:19.402Z,7.50
2017-08-15T06:05:46.301Z,8.17
2017-08-15T06:08:13.179Z,7.60
2017-08-15T06:10:40.155Z,7.93
2017-08-15T06:13:07.075Z,7.90
2017-08-15T06:15:34.016Z,6.20
2017-08-15T06:18:01.021Z,7.67
2017-08-15T06:20:27.933Z,7.47
2017-08-15T06:22:54.807Z,7.10
2017-08-15T06:25:21.757Z,7.33
2017-08-15T06:27:48.662Z,7.63
2017-08-15T06:30:15.685Z,7.03
2017-08-15T06:32:42.610Z,7.07
2017-08-15T06:35:09.493Z,7.03
2017-08-15T06:37:36.443Z,6.37
2017-08-15T06:40:03.325Z,6.77
2017-08-15T06:42:30.224Z,7.13
2017-08-15T06:44:57.169Z,7.57
2017-08-15T06:47:24.091Z,6.50
2017-08-15T06:49:51.096Z,7.27
2017-08-15T06:52:18.733Z,7.00
2017-08-15T06:54:45.697Z,6.40
2017-08-15T06:57:12.566Z,8.63
2017-08-15T06:59:39.517Z,6.80
2017-08-15T07:02:06.397Z,6.90
2017-08-15T07:04:33.348Z,7.33
2017-08-15T07:07:00.272Z,6.67
2017-08-15T07:09:27.232Z,8.20
2017-08-15T07:11:54.177Z,6.50
2017-08-15T07:14:21.034Z,6.40
2017-08-15T07:16:47.968Z,6.40
2017-08-15T07:19:15.765Z,5.70
2017-08-15T07:21:42.912Z,5.60
2017-08-15T07:24:09.865Z,6.10
2017-08-15T07:26:36.817Z,6.20
2017-08-15T07:29:17.970Z,6.37
2017-08-15T07:31:46.225Z,5.37
2017-08-15T07:34:13.185Z,5.90
2017-08-15T07:36:40.072Z,5.73
2017-08-15T07:39:07.872Z,5.43
2017-08-15T07:41:47.959Z,5.27
2017-08-15T07:44:15.777Z,5.57
2017-08-15T07:46:47.881Z,5.80
2017-08-15T07:49:14.849Z,4.80
2017-08-15T07:51:41.740Z,5.23
2017-08-15T07:54:08.601Z,5.13
2017-08-15T07:56:35.568Z,5.10
2017-08-15T07:59:02.528Z,5.00
2017-08-15T08:01:29.498Z,4.50
2017-08-15T08:03:56.476Z,5.53
2017-08-15T08:06:23.370Z,4.43
2017-08-15T08:08:50.271Z,4.63
2017-08-15T08:11:17.249Z,5.57
2017-08-15T08:13:44.228Z,4.70
2017-08-15T08:16:11.889Z,4.30
2017-08-15T08:18:39.565Z,4.80
2017-08-15T08:21:07.276Z,4.60
2017-08-15T08:23:34.245Z,4.83
2017-08-15T08:26:01.139Z,4.87
2017-08-15T08:28:28.027Z,4.87
2017-08-15T08:30:55.052Z,4.00
2017-08-15T08:33:21.952Z,4.50
2017-08-15T08:35:49.598Z,3.87
2017-08-15T09:23:01.712Z,9.70
2017-08-15T09:25:28.728Z,7.97
2017-08-15T09:27:55.625Z,10.67
2017-08-15T09:30:22.654Z,9.43
2017-08-15T09:32:49.540Z,6.60
2017-08-15T09:35:16.488Z,6.50
2017-08-15T09:37:43.509Z,7.30
2017-08-15T09:40:10.477Z,5.33
2017-08-15T09:42:37.518Z,5.40
2017-08-15T09:45:04.468Z,5.00
2017-08-15T09:47:31.449Z,5.40
2017-08-15T09:49:58.328Z,4.80
2017-08-15T09:52:25.286Z,5.83
2017-08-15T09:54:52.271Z,4.90
2017-08-15T09:57:19.191Z,4.93
2017-08-15T09:59:46.832Z,5.50
2017-08-15T10:02:16.152Z,5.57
2017-08-15T10:04:43.228Z,5.00
2017-08-15T10:07:10.134Z,4.87
2017-08-15T10:09:37.150Z,5.57
2017-08-15T10:12:04.160Z,4.70
2017-08-15T10:14:31.857Z,4.90
2017-08-15T10:17:00.271Z,5.40
2017-08-15T10:19:27.248Z,4.23
2017-08-15T10:21:55.146Z,4.80
2017-08-15T10:24:22.110Z,4.63
2017-08-15T10:26:49.203Z,4.03
2017-08-15T10:29:16.296Z,5.00
2017-08-15T10:31:43.473Z,3.73
2017-08-15T10:34:10.358Z,4.13
2017-08-15T10:36:37.314Z,4.90
2017-08-15T10:39:05.914Z,4.30
2017-08-15T10:41:34.457Z,5.03
2017-08-15T10:44:02.990Z,4.60
2017-08-15T10:46:30.058Z,4.60
2017-08-15T10:48:56.940Z,4.80
2017-08-15T10:51:23.877Z,4.60
2017-08-15T10:53:50.786Z,4.53
2017-08-15T10:56:17.759Z,4.30
2017-08-15T10:58:44.741Z,5.17
2017-08-15T11:01:12.456Z,4.83
2017-08-15T11:03:39.388Z,4.83
2017-08-15T11:06:06.276Z,4.77
2017-08-15T11:08:33.208Z,4.60
2017-08-15T11:11:00.126Z,4.57
2017-08-15T11:13:27.009Z,5.13
2017-08-15T11:15:53.941Z,4.23
2017-08-15T11:18:20.832Z,5.20
2017-08-15T11:20:47.874Z,4.60
2017-08-15T11:23:15.569Z,5.40
2017-08-15T11:25:42.563Z,4.57
2017-08-15T11:28:09.520Z,4.83
2017-08-15T11:30:36.450Z,4.37
2017-08-15T11:33:03.512Z,4.80
2017-08-15T11:35:31.178Z,4.43
2017-08-15T11:38:10.284Z,4.50
2017-08-15T11:40:49.851Z,4.37
2017-08-15T11:43:29.517Z,4.50
2017-08-15T11:46:10.656Z,5.47
2017-08-15T11:48:50.573Z,4.53
2017-08-15T11:51:31.383Z,4.37
2017-08-15T11:54:14.046Z,4.53
2017-08-15T11:56:49.712Z,4.60
2017-08-15T11:59:20.606Z,4.97
2017-08-15T12:01:51.473Z,5.17
2017-08-15T12:04:19.585Z,4.43
2017-08-15T12:06:49.475Z,4.93
2017-08-15T12:09:16.506Z,4.57
2017-08-15T12:11:51.421Z,5.60
2017-08-15T12:14:20.853Z,5.40
2017-08-15T12:16:47.744Z,4.80
2017-08-15T12:19:14.994Z,4.90
2017-08-15T12:21:46.388Z,5.07
2017-08-15T12:24:17.586Z,4.63
2017-08-15T12:26:55.088Z,5.80
2017-08-15T12:29:24.075Z,5.30
2017-08-15T12:31:51.164Z,7.37
2017-08-15T12:34:18.167Z,8.93
2017-08-15T12:36:45.054Z,7.90
2017-08-15T12:39:11.993Z,16.93
2017-08-15T12:41:39.692Z,18.73
2017-08-15T12:44:06.785Z,14.83
2017-08-15T12:46:33.676Z,4.27
2017-08-15T12:49:00.728Z,3.97
2017-08-15T12:51:27.608Z,4.50
2017-08-15T12:53:54.617Z,4.03
2017-08-15T12:56:21.560Z,4.40
2017-08-15T12:58:48.435Z,5.00
2017-08-15T13:01:15.313Z,4.03
2017-08-15T13:03:42.325Z,4.30
2017-08-15T13:06:09.290Z,5.43
2017-08-15T13:08:36.172Z,4.47
2017-08-15T13:11:03.077Z,4.43
2017-08-15T13:13:30.059Z,4.47
2017-08-15T13:15:56.949Z,5.10
2017-08-15T13:18:23.912Z,5.07
2017-08-15T13:20:50.793Z,4.93
2017-08-15T13:23:17.745Z,5.37
2017-08-15T13:25:44.776Z,4.67
2017-08-15T13:28:12.468Z,5.30
2017-08-15T13:30:39.350Z,4.80
2017-08-15T13:33:06.339Z,5.60
2017-08-15T13:35:33.350Z,5.10
2017-08-15T13:38:00.313Z,4.37
2017-08-15T13:40:27.327Z,4.90
2017-08-15T13:42:54.220Z,5.53
2017-08-15T13:45:21.846Z,5.10
2017-08-15T13:47:48.811Z,5.20
2017-08-15T13:50:15.753Z,6.83
2017-08-15T13:52:42.713Z,6.30
2017-08-15T13:55:09.706Z,5.17
2017-08-15T13:57:36.565Z,5.83
2017-08-15T14:00:03.655Z,5.37
2017-08-15T14:02:31.267Z,5.70
2017-08-15T14:04:58.233Z,5.83
2017-08-15T14:07:25.286Z,4.97
2017-08-15T14:09:52.264Z,6.00
2017-08-15T14:12:19.226Z,5.40
2017-08-15T14:14:46.289Z,5.30
2017-08-15T14:17:22.135Z,5.53
2017-08-15T14:19:49.156Z,5.43
2017-08-15T14:22:16.042Z,4.57
2017-08-15T14:24:43.015Z,4.77
2017-08-15T14:27:09.956Z,4.00
2017-08-15T14:29:36.992Z,5.40
2017-08-15T14:32:04.012Z,6.23
2017-08-15T14:34:31.137Z,5.30
2017-08-15T14:36:58.342Z,5.40
2017-08-15T14:39:25.219Z,5.83
2017-08-15T14:41:52.231Z,5.27
2017-08-15T14:44:19.284Z,4.93
2017-08-15T14:46:46.210Z,6.17
2017-08-15T14:49:26.931Z,4.90
2017-08-15T14:51:54.927Z,4.90
2017-08-15T14:54:22.728Z,5.63
2017-08-15T14:56:49.706Z,5.03
2017-08-15T14:59:16.630Z,5.70
2017-08-15T15:01:43.652Z,5.47
2017-08-15T15:04:10.601Z,4.63
2017-08-15T15:06:37.628Z,5.57
2017-08-15T15:09:05.390Z,6.10
2017-08-15T15:11:32.360Z,6.10
2017-08-15T15:13:59.314Z,5.27
2017-08-15T15:16:26.343Z,5.53
2017-08-15T15:18:54.036Z,6.70
2017-08-15T15:21:21.056Z,5.53
2017-08-15T15:23:48.744Z,6.87
2017-08-15T15:26:15.784Z,5.87
2017-08-15T15:28:42.728Z,6.57
2017-08-15T15:31:09.746Z,5.53
2017-08-15T15:33:37.509Z,7.27
2017-08-15T15:36:04.513Z,6.53
2017-08-15T15:38:31.477Z,6.40
2017-08-15T15:40:58.554Z,6.57
2017-08-15T15:43:25.509Z,5.83
2017-08-15T15:45:53.115Z,7.40
2017-08-15T15:48:20.129Z,5.60
2017-08-15T15:50:47.865Z,6.03
2017-08-15T15:53:14.735Z,6.20
2017-08-15T15:55:41.677Z,6.33
2017-08-15T15:58:09.405Z,6.43
2017-08-15T16:00:36.353Z,6.10
2017-08-15T16:03:03.253Z,6.53
2017-08-15T16:05:30.210Z,6.53
2017-08-15T16:07:57.243Z,6.60
2017-08-15T16:10:24.218Z,6.60
2017-08-15T16:12:51.139Z,6.10
2017-08-15T16:15:18.135Z,6.40
2017-08-15T16:17:45.037Z,7.07
2017-08-15T16:20:11.918Z,6.03
2017-08-15T16:22:42.784Z,6.47
2017-08-15T16:25:09.787Z,7.33
2017-08-15T16:27:36.711Z,6.47
2017-08-15T16:30:03.675Z,6.10
2017-08-15T16:32:30.536Z,6.67
2017-08-15T16:34:57.405Z,6.77
2017-08-15T16:37:24.332Z,6.50
2017-08-15T16:39:51.267Z,6.30
2017-08-15T16:42:18.219Z,6.87
2017-08-15T16:44:45.208Z,6.60
2017-08-15T16:47:12.893Z,6.57
2017-08-15T16:49:39.809Z,6.10
2017-08-15T16:52:07.633Z,6.30
2017-08-15T16:54:34.623Z,7.27
2017-08-15T16:57:01.598Z,5.93
2017-08-15T16:59:28.603Z,6.13
2017-08-15T17:01:55.481Z,6.40
2017-08-15T17:04:23.209Z,6.97
2017-08-15T17:06:50.069Z,6.07
2017-08-15T17:09:17.046Z,6.70
2017-08-15T17:11:43.977Z,6.20
2017-08-15T17:14:10.935Z,6.17
2017-08-15T17:16:37.895Z,7.03
2017-08-15T17:19:04.804Z,6.73
2017-08-15T17:21:32.390Z,6.43
2017-08-15T17:23:59.332Z,6.40
2017-08-15T17:26:27.036Z,7.60
2017-08-15T17:28:53.908Z,6.33
2017-08-15T17:31:20.986Z,6.50
2017-08-15T17:33:48.645Z,6.77
2017-08-15T17:36:16.243Z,6.90
2017-08-15T17:38:43.196Z,6.73
2017-08-15T17:41:10.141Z,7.33
2017-08-15T17:43:37.006Z,6.20
2017-08-15T17:46:03.928Z,7.23
2017-08-15T17:48:30.816Z,7.37
2017-08-15T17:50:58.141Z,7.53
2017-08-15T17:53:24.988Z,7.13
2017-08-15T17:55:51.849Z,7.33
2017-08-15T17:58:19.433Z,6.47
2017-08-15T18:00:47.724Z,6.00
2017-08-15T18:03:16.587Z,7.00
2017-08-15T18:05:44.474Z,7.73
2017-08-15T18:08:12.531Z,8.17
2017-08-15T18:10:41.350Z,7.13
2017-08-15T18:13:08.495Z,6.90
2017-08-15T18:15:37.270Z,8.20
2017-08-15T18:18:05.538Z,7.03
2017-08-15T18:20:34.853Z,8.30
2017-08-15T18:23:02.527Z,7.93
2017-08-15T18:25:30.984Z,7.50
2017-08-15T18:28:01.578Z,8.20
2017-08-15T18:30:30.217Z,7.97
2017-08-15T18:32:59.977Z,8.57
2017-08-15T18:35:30.194Z,7.80
2017-08-15T18:37:59.324Z,9.00
2017-08-15T18:40:27.619Z,9.07
2017-08-15T18:42:55.486Z,8.10
2017-08-15T18:45:23.812Z,8.67
2017-08-15T18:47:52.886Z,9.13
2017-08-15T18:50:22.891Z,8.80
2017-08-15T18:52:54.212Z,8.97
2017-08-15T18:55:21.232Z,8.63
2017-08-15T18:57:48.178Z,8.77
2017-08-15T19:00:16.780Z,9.53
2017-08-15T19:02:45.272Z,9.10
2017-08-15T19:05:14.191Z,9.17
2017-08-15T19:07:43.589Z,9.03
2017-08-15T19:10:11.384Z,8.70
2017-08-15T19:12:40.042Z,8.57
2017-08-15T19:15:07.125Z,9.13
2017-08-15T19:17:35.604Z,9.57
2017-08-15T19:20:06.446Z,9.40
2017-08-15T19:22:34.905Z,8.77
2017-08-15T19:25:02.293Z,9.50
2017-08-15T19:27:30.983Z,10.60
2017-08-15T19:29:59.042Z,11.50
2017-08-15T19:32:27.283Z,10.47
2017-08-15T19:34:56.205Z,10.23
2017-08-15T19:37:24.900Z,11.43
2017-08-15T19:39:53.625Z,11.17
2017-08-15T19:42:21.216Z,10.43
2017-08-15T19:44:49.735Z,10.60
2017-08-15T19:47:16.778Z,9.87
2017-08-15T19:49:43.846Z,10.30
2017-08-15T19:52:10.897Z,10.13
2017-08-15T19:54:37.991Z,10.30
2017-08-15T19:57:05.688Z,11.37
2017-08-15T19:59:32.586Z,10.70
2017-08-15T20:01:59.492Z,10.60
2017-08-15T20:04:26.461Z,10.10
2017-08-15T20:06:53.349Z,11.43
2017-08-15T20:09:20.961Z,10.90
2017-08-15T20:11:47.884Z,10.40
2017-08-15T20:14:15.719Z,9.50
2017-08-15T20:16:43.942Z,10.50
2017-08-15T20:19:11.750Z,9.37
2017-08-15T20:21:39.694Z,10.57
2017-08-15T20:24:08.532Z,10.73
2017-08-15T20:26:35.564Z,10.00
2017-08-15T20:29:02.524Z,9.70
2017-08-15T20:31:30.172Z,11.93
2017-08-15T20:33:57.080Z,9.97
2017-08-15T20:36:25.238Z,9.60
2017-08-15T20:38:52.848Z,9.50
2017-08-15T20:41:21.665Z,10.30
2017-08-15T20:43:51.114Z,9.67
2017-08-15T20:46:18.064Z,10.07
2017-08-15T20:48:45.010Z,9.90
2017-08-15T20:51:11.882Z,10.33
2017-08-15T20:53:38.826Z,10.47
2017-08-15T20:56:07.403Z,11.60
2017-08-15T20:58:35.392Z,10.67
2017-08-15T21:01:03.449Z,11.07
2017-08-15T21:03:31.491Z,10.60
2017-08-15T21:05:59.177Z,10.30
2017-08-15T21:08:27.506Z,10.57
2017-08-15T21:10:55.701Z,10.00
2017-08-15T21:13:24.396Z,10.40
2017-08-15T21:15:53.307Z,11.77
2017-08-15T21:18:22.521Z,10.20
2017-08-15T21:20:51.719Z,9.77
2017-08-15T21:23:21.020Z,9.03
2017-08-15T21:25:48.015Z,9.53
2017-08-15T21:28:14.967Z,10.00
2017-08-15T21:30:41.952Z,11.53
2017-08-15T21:33:09.008Z,10.23
2017-08-15T21:35:36.139Z,10.67
2017-08-15T21:38:03.205Z,9.60
2017-08-15T21:40:30.241Z,8.40
2017-08-15T21:42:57.102Z,7.33
2017-08-15T21:45:23.959Z,7.53
2017-08-15T21:47:51.667Z,6.63
2017-08-15T21:50:20.592Z,7.37
2017-08-15T21:52:50.333Z,7.30
2017-08-15T21:55:20.234Z,7.63
2017-08-15T21:57:49.418Z,6.70
2017-08-15T22:00:18.312Z,7.20
2017-08-15T22:02:46.142Z,6.60
2017-08-15T22:05:14.388Z,7.57
2017-08-15T22:07:43.883Z,7.20
2017-08-15T22:10:13.544Z,7.37
2017-08-15T22:12:41.355Z,8.83
2017-08-15T22:15:08.743Z,8.50
2017-08-15T22:17:36.155Z,8.00
2017-08-15T22:20:03.197Z,8.80
2017-08-15T22:22:30.092Z,8.97
2017-08-15T22:24:56.969Z,7.37
2017-08-15T22:27:23.895Z,7.73
2017-08-15T22:29:50.760Z,8.20
2017-08-15T22:32:17.702Z,7.77
2017-08-15T22:34:44.573Z,8.70
2017-08-15T22:37:14.961Z,9.10
2017-08-15T22:39:41.902Z,8.40
2017-08-15T22:42:08.751Z,9.80
2017-08-15T22:44:35.652Z,8.67
2017-08-15T22:47:02.582Z,9.27
2017-08-15T22:49:29.513Z,9.23
2017-08-15T22:51:56.397Z,9.23
2017-08-15T22:54:24.076Z,9.30
2017-08-15T22:56:50.936Z,9.40
2017-08-15T22:59:17.802Z,10.53
2017-08-15T23:01:44.732Z,10.13
2017-08-15T23:04:11.575Z,10.90
2017-08-15T23:06:38.432Z,9.80
2017-08-15T23:09:05.389Z,9.50
2017-08-15T23:11:32.262Z,10.13
2017-08-15T23:13:59.208Z,9.90
2017-08-15T23:16:26.160Z,9.80
2017-08-15T23:18:53.780Z,10.07
2017-08-15T23:21:20.744Z,9.77
2017-08-15T23:23:47.617Z,9.03
2017-08-15T23:26:15.209Z,9.90
2017-08-15T23:28:42.131Z,9.50
2017-08-15T23:31:09.724Z,9.67
2017-08-15T23:33:36.673Z,10.77
2017-08-15T23:36:03.524Z,11.10
2017-08-15T23:38:30.458Z,10.13
2017-08-15T23:40:57.379Z,9.67
2017-08-15T23:43:25.044Z,9.57
2017-08-15T23:45:52.705Z,10.10
2017-08-15T23:48:20.328Z,11.10
2017-08-15T23:50:47.264Z,9.93
2017-08-15T23:53:14.200Z,9.17
2017-08-15T23:55:41.053Z,10.00
2017-08-15T23:58:07.913Z,10.20
